Terminal Aerodrome Forecast
Issued by NWS

Home | Current Version | Previous Version | Text Only | Print | Product List | Glossary On
Versions: 1 2 3 4 5 6 7 8 9 10 11 12 13 14
892
FTUS43 KDTX 171721
TAFDET
TAF
KDET 171721Z 1718/1818 19012KT 4SM SHRA VCTS BKN018 OVC040CB
     FM172000 23012KT P6SM SCT025 BKN060
     FM172300 21009KT P6SM SCT030 BKN045
     FM180600 22007KT P6SM SCT022
     FM181200 24014G22KT P6SM OVC028
     FM181700 24014G24KT P6SM BKN040=

USA.gov is the U.S. government's official web portal to all federal, state and local government web resources and services.